Time;durP1;ratioP1;P1;durP2;ratioP2;P2;SDS_P1;SDS_P2;PMS_P1;PMS_P2;Temp;Humidity;BMP_temperature;BMP_pressure;BME280_temperature;BME280_humidity;BME280_pressure;Samples;Min_cycle;Max_cycle;Signal;HPM_P1;HPM_P2
2021/11/29 00:05:37;;;;;;;16.63;8.45;;;;;;;1.19;93.63;98987.25;20656977;28;20054;-67
2021/11/29 00:15:39;;;;;;;14.95;8.43;;;;;;;1.01;95.04;98984.72;20657128;28;20059;-67
2021/11/29 00:25:42;;;;;;;14.50;8.27;;;;;;;1.11;94.81;98993.31;20656127;28;20058;-67
2021/11/29 00:35:44;;;;;;;14.60;8.10;;;;;;;0.94;94.52;99001.88;20655553;28;20105;-70
2021/11/29 00:45:46;;;;;;;18.00;9.65;;;;;;;0.75;94.60;99008.72;20655552;28;20081;-69
2021/11/29 00:55:47;;;;;;;18.27;9.95;;;;;;;0.75;94.08;99019.03;20655631;28;20054;-69
2021/11/29 01:05:49;;;;;;;19.58;9.98;;;;;;;0.69;94.38;99025.91;20651769;28;20050;-70
2021/11/29 01:15:50;;;;;;;19.25;10.35;;;;;;;0.84;92.96;99043.09;20654080;28;20170;-69
2021/11/29 01:25:53;;;;;;;21.98;10.60;;;;;;;0.95;92.82;99056.84;20654119;28;20058;-70
2021/11/29 01:35:55;;;;;;;20.77;10.18;;;;;;;0.92;92.81;99054.28;20653108;28;20120;-69
2021/11/29 01:45:57;;;;;;;19.98;10.63;;;;;;;0.97;92.37;99065.47;20667391;28;20064;-71
2021/11/29 01:55:59;;;;;;;21.13;10.82;;;;;;;0.93;92.57;99074.03;20668050;28;20109;-69
2021/11/29 02:06:01;;;;;;;23.50;11.02;;;;;;;0.93;92.89;99084.34;20668217;28;20054;-69
2021/11/29 02:16:06;;;;;;;24.02;11.15;;;;;;;0.93;93.33;99089.50;20666669;28;20499;-66
2021/11/29 02:26:08;;;;;;;22.27;11.43;;;;;;;0.91;93.61;99096.34;20665629;28;20146;-66
2021/11/29 02:36:11;;;;;;;24.88;11.50;;;;;;;1.00;92.67;99107.53;20664624;28;20380;-66
2021/11/29 02:46:13;;;;;;;28.55;13.60;;;;;;;1.07;92.90;99118.75;20663718;28;20054;-67
2021/11/29 02:56:15;;;;;;;28.65;13.27;;;;;;;1.13;92.68;99129.06;20662231;28;20529;-66
2021/11/29 03:06:18;;;;;;;26.80;13.05;;;;;;;1.25;92.83;99134.25;20662922;28;20058;-66
2021/11/29 03:16:20;;;;;;;24.63;13.45;;;;;;;1.28;91.91;99157.44;20661872;28;20058;-67
2021/11/29 03:26:23;;;;;;;25.38;12.32;;;;;;;1.39;91.86;99166.91;20661610;28;20054;-66
2021/11/29 03:36:27;;;;;;;24.88;12.68;;;;;;;1.46;91.53;99177.25;20658989;28;20098;-66
2021/11/29 03:46:29;;;;;;;22.70;11.75;;;;;;;1.53;92.24;99191.88;20659494;28;20061;-67
2021/11/29 03:56:32;;;;;;;25.25;12.77;;;;;;;1.46;93.26;99194.44;20659612;28;20050;-67
2021/11/29 04:06:33;;;;;;;26.83;13.65;;;;;;;1.19;93.38;99202.97;20657775;28;20642;-67
2021/11/29 04:16:35;;;;;;;27.58;12.70;;;;;;;0.90;94.40;99208.03;20656156;28;20054;-68
2021/11/29 04:26:38;;;;;;;28.15;12.20;;;;;;;0.61;95.55;99231.94;20655506;28;20400;-66
2021/11/29 04:36:40;;;;;;;29.45;13.32;;;;;;;0.42;95.57;99248.97;20654949;28;20055;-67
2021/11/29 04:46:41;;;;;;;28.77;12.40;;;;;;;0.17;95.43;99265.97;20655233;28;20745;-67
2021/11/29 04:56:43;;;;;;;24.58;11.10;;;;;;;-0.06;95.68;99278.66;20655215;28;20137;-69
2021/11/29 05:06:44;;;;;;;27.80;12.27;;;;;;;-0.20;96.06;99299.94;20653743;28;20054;-70
2021/11/29 05:16:46;;;;;;;30.13;13.55;;;;;;;-0.30;95.92;99311.84;20662003;28;20116;-71
2021/11/29 05:26:47;;;;;;;28.67;12.55;;;;;;;-0.46;96.54;99323.69;20670892;28;20479;-70
2021/11/29 05:36:49;;;;;;;31.80;14.18;;;;;;;-0.53;96.94;99338.22;20669332;28;20490;-70
2021/11/29 05:46:51;;;;;;;32.22;13.32;;;;;;;-0.64;96.63;99349.19;20669434;28;20109;-70
2021/11/29 05:56:53;;;;;;;25.23;11.88;;;;;;;-0.73;96.55;99359.34;20668704;28;20114;-72
2021/11/29 06:06:55;;;;;;;22.55;10.50;;;;;;;-0.88;96.25;99381.44;20666754;28;20089;-72
2021/11/29 06:16:56;;;;;;;25.77;11.57;;;;;;;-0.94;96.45;99394.19;20667309;28;20058;-71
2021/11/29 06:26:58;;;;;;;23.38;10.50;;;;;;;-0.98;95.80;99415.56;20665661;28;20431;-72
2021/11/29 06:37:00;;;;;;;24.80;10.45;;;;;;;-0.99;95.99;99439.53;20664308;28;20097;-72
2021/11/29 06:47:02;;;;;;;26.08;11.50;;;;;;;-1.11;96.26;99457.31;20665018;28;20078;-73
2021/11/29 06:57:06;;;;;;;24.75;11.35;;;;;;;-1.22;95.97;99476.81;20666613;28;20128;-74
2021/11/29 07:07:07;;;;;;;27.67;12.87;;;;;;;-1.26;96.10;99495.56;20662164;28;20116;-71
2021/11/29 07:17:09;;;;;;;22.83;12.10;;;;;;;-1.22;96.90;99525.63;20662721;28;20105;-72
2021/11/29 07:27:11;;;;;;;33.03;13.60;;;;;;;-1.12;96.62;99542.91;20662433;28;20138;-70
2021/11/29 07:37:15;;;;;;;28.85;13.05;;;;;;;-0.99;96.64;99557.69;20660781;28;20079;-70
2021/11/29 07:47:17;;;;;;;;;;;;;;;-0.59;95.49;99561.78;20661050;28;20054;-69
2021/11/29 07:57:18;;;;;;;33.50;14.30;;;;;;;-0.05;93.72;99562.53;20659913;28;19922;-69
2021/11/29 08:07:20;;;;;;;21.60;9.20;;;;;;;0.64;91.41;99568.53;20651628;28;20113;-69
2021/11/29 08:17:21;;;;;;;15.13;6.85;;;;;;;1.09;89.00;99559.53;20650299;28;20085;-69
2021/11/29 08:27:23;;;;;;;18.35;6.70;;;;;;;1.13;88.38;99595.66;20648834;28;20058;-69
2021/11/29 08:37:25;;;;;;;17.52;6.80;;;;;;;1.06;88.26;99614.50;20613096;28;20101;-71
2021/11/29 08:47:27;;;;;;;18.38;6.90;;;;;;;1.32;86.79;99639.66;20584453;28;20475;-69
2021/11/29 08:57:28;;;;;;;17.33;6.88;;;;;;;1.49;85.47;99640.69;20644796;28;20050;-68
2021/11/29 09:07:30;;;;;;;15.38;6.53;;;;;;;1.62;84.92;99650.25;20642201;28;20051;-68
2021/11/29 09:17:31;;;;;;;14.32;6.50;;;;;;;1.80;83.06;99667.59;20648353;28;20124;-68
2021/11/29 09:27:33;;;;;;;14.00;5.88;;;;;;;1.90;83.27;99676.28;20647468;28;20050;-67
2021/11/29 09:37:37;;;;;;;15.00;6.13;;;;;;;1.94;82.32;99688.34;20646193;28;20503;-68
2021/11/29 09:47:40;;;;;;;16.00;6.10;;;;;;;2.00;81.98;99698.72;20645225;28;20089;-68
2021/11/29 09:57:42;;;;;;;12.68;6.38;;;;;;;2.01;80.25;99705.59;20646710;28;20615;-68
2021/11/29 10:07:51;;;;;;;14.05;6.40;;;;;;;2.19;79.67;99710.91;20660366;28;20408;-68
2021/11/29 10:18:13;;;;;;;17.90;6.55;;;;;;;2.40;80.38;99724.84;20660758;28;20257;-69
2021/11/29 10:28:37;;;;;;;14.00;6.43;;;;;;;2.84;77.17;99714.75;20659821;28;20054;-67
2021/11/29 10:38:59;;;;;;;15.10;7.00;;;;;;;2.68;77.64;99716.38;20657659;28;20056;-67
2021/11/29 10:49:06;;;;;;;12.88;6.50;;;;;;;2.66;77.30;99717.22;20656238;28;20058;-67
2021/11/29 10:59:11;;;;;;;11.55;5.43;;;;;;;2.63;76.87;99719.78;20656854;28;20096;-67
2021/11/29 11:09:21;;;;;;;12.27;6.43;;;;;;;2.73;77.54;99730.22;20653604;28;20101;-67
2021/11/29 11:19:50;;;;;;;11.45;6.00;;;;;;;2.80;76.65;99736.25;20655458;28;20113;-68
2021/11/29 11:29:54;;;;;;;13.73;6.50;;;;;;;2.93;76.41;99750.13;20645521;28;20408;-68
2021/11/29 11:39:56;;;;;;;16.57;7.03;;;;;;;2.88;77.42;99760.44;20652476;28;20058;-68
2021/11/29 11:49:58;;;;;;;13.93;6.65;;;;;;;2.78;76.83;99785.38;20651588;28;20077;-68
2021/11/29 12:00:15;;;;;;;12.80;6.10;;;;;;;2.75;77.37;99794.81;20648366;28;20557;-69
2021/11/29 12:10:33;;;;;;;14.18;6.40;;;;;;;2.90;76.54;99799.22;20651516;28;20080;-69
2021/11/29 12:20:35;;;;;;;12.07;6.10;;;;;;;2.95;77.95;99797.53;20651309;28;20057;-68
2021/11/29 12:30:42;;;;;;;12.02;5.55;;;;;;;3.05;76.22;99809.63;20649601;28;20058;-68
2021/11/29 12:41:06;;;;;;;12.98;5.85;;;;;;;3.02;76.98;99794.13;20645646;28;20050;-68
2021/11/29 12:51:08;;;;;;;14.37;5.80;;;;;;;3.00;76.31;99795.81;20644269;28;20419;-68
2021/11/29 13:01:13;;;;;;;12.85;4.93;;;;;;;3.01;76.34;99790.66;20644945;28;20454;-68
2021/11/29 13:11:24;;;;;;;13.45;5.28;;;;;;;3.10;77.65;99810.53;20644219;28;20423;-68
2021/11/29 13:21:33;;;;;;;10.88;5.07;;;;;;;3.09;76.90;99806.22;20645401;28;20058;-68
2021/11/29 13:31:37;;;;;;;10.65;4.75;;;;;;;2.93;78.54;99831.13;20603035;28;1192592;-68
2021/11/29 13:41:40;;;;;;;17.10;5.40;;;;;;;2.68;80.43;99840.44;20662635;28;20458;-69
2021/11/29 13:51:42;;;;;;;16.45;6.70;;;;;;;2.76;81.78;99843.94;20663637;28;20050;-69
2021/11/29 14:01:44;;;;;;;15.13;6.20;;;;;;;2.83;81.49;99850.91;20659359;28;20503;-68
2021/11/29 14:11:46;;;;;;;12.95;6.18;;;;;;;2.96;80.30;99861.31;20659778;28;20054;-68
2021/11/29 14:21:50;;;;;;;15.00;6.40;;;;;;;2.84;81.33;99867.28;20653569;28;20104;-69
2021/11/29 14:32:05;;;;;;;17.83;7.18;;;;;;;2.86;80.68;99869.84;20654061;28;20062;-68
2021/11/29 14:42:14;;;;;;;11.75;6.00;;;;;;;2.73;81.15;99894.75;20652496;28;20105;-68
2021/11/29 14:52:19;;;;;;;14.38;6.28;;;;;;;2.73;82.16;99899.91;20654536;28;20054;-68
2021/11/29 15:02:21;;;;;;;14.55;6.90;;;;;;;2.76;83.42;99911.16;20653975;28;20061;-69
2021/11/29 15:12:31;;;;;;;16.10;7.80;;;;;;;2.78;82.98;99932.72;20654196;28;20470;-69
2021/11/29 15:22:33;;;;;;;14.93;8.05;;;;;;;2.78;83.00;99935.31;20653362;28;20052;-69
2021/11/29 15:32:37;;;;;;;17.85;8.43;;;;;;;2.64;84.35;99936.06;20650291;28;20058;-66
2021/11/29 15:42:38;;;;;;;20.90;8.23;;;;;;;2.24;86.57;99945.97;20660882;28;20089;-68
2021/11/29 15:52:40;;;;;;;18.48;7.90;;;;;;;2.08;88.28;99955.28;20714238;28;20047;-68
2021/11/29 16:02:41;;;;;;;18.55;8.15;;;;;;;2.02;89.47;99988.78;20647531;28;20117;-68
2021/11/29 16:12:43;;;;;;;17.45;8.15;;;;;;;1.93;89.64;99996.41;20650345;28;20474;-67
2021/11/29 16:22:45;;;;;;;17.75;7.07;;;;;;;1.85;89.74;100023.84;20649705;28;20081;-67
2021/11/29 16:32:46;;;;;;;16.75;8.48;;;;;;;1.86;90.14;100023.84;20646932;28;20062;-67
2021/11/29 16:42:48;;;;;;;16.13;7.53;;;;;;;1.75;90.97;100044.38;20647818;28;20120;-67
2021/11/29 16:52:50;;;;;;;15.13;7.30;;;;;;;1.78;91.00;100065.06;20647990;28;20435;-67
2021/11/29 17:02:52;;;;;;;17.70;7.55;;;;;;;1.78;90.65;100088.28;20646758;28;20141;-67
2021/11/29 17:12:53;;;;;;;17.55;7.75;;;;;;;1.86;90.79;100097.84;20645685;28;20066;-67
2021/11/29 17:22:55;;;;;;;18.35;7.55;;;;;;;1.89;90.79;100106.50;20646536;28;20066;-67
2021/11/29 17:32:57;;;;;;;14.75;7.20;;;;;;;1.86;91.19;100116.78;20645664;28;20066;-67
2021/11/29 17:42:58;;;;;;;14.70;7.43;;;;;;;1.83;91.22;100129.66;20646109;28;20109;-67
2021/11/29 17:53:00;;;;;;;16.55;7.78;;;;;;;1.84;91.91;100143.44;20645943;28;20529;-67
2021/11/29 18:03:02;;;;;;;15.38;8.45;;;;;;;1.76;92.11;100164.81;20644673;28;20085;-72
2021/11/29 18:13:06;;;;;;;17.58;9.07;;;;;;;1.69;92.71;100168.16;20643742;28;20137;-72
2021/11/29 18:23:07;;;;;;;20.30;10.63;;;;;;;1.83;92.50;100189.03;20649757;28;20183;-71
2021/11/29 18:33:11;;;;;;;21.15;10.52;;;;;;;1.71;92.99;100196.56;20656923;28;20054;-71
2021/11/29 18:43:14;;;;;;;18.65;9.73;;;;;;;1.66;93.40;100204.22;20656803;28;20061;-74
2021/11/29 18:53:19;;;;;;;18.10;9.70;;;;;;;1.70;93.28;100221.50;20654003;28;20058;-72
2021/11/29 19:03:23;;;;;;;;;;;;;;;1.76;92.84;100238.81;20654838;28;20124;-71
2021/11/29 19:13:24;;;;;;;18.20;8.65;;;;;;;1.72;92.63;100245.63;20654778;28;19929;-70
2021/11/29 19:23:26;;;;;;;25.23;11.73;;;;;;;1.77;92.67;100259.50;20652588;28;20062;-70
2021/11/29 19:33:28;;;;;;;20.67;10.43;;;;;;;1.82;92.97;100261.28;20652065;28;20058;-70
2021/11/29 19:43:30;;;;;;;20.48;9.18;;;;;;;1.85;92.96;100285.44;20653079;28;20050;-70
2021/11/29 19:53:33;;;;;;;21.40;10.05;;;;;;;1.83;92.50;100278.53;20663207;28;20054;-70
2021/11/29 20:03:38;;;;;;;18.00;9.45;;;;;;;1.77;93.40;100287.00;20650814;28;20046;-70
2021/11/29 20:13:44;;;;;;;18.55;9.68;;;;;;;1.74;93.83;100303.31;20648165;28;20062;-70
2021/11/29 20:23:45;;;;;;;19.95;9.73;;;;;;;1.79;93.60;100317.19;20649022;28;20062;-70
2021/11/29 20:33:47;;;;;;;24.55;10.32;;;;;;;1.82;93.83;100323.22;20648693;28;20050;-71
2021/11/29 20:43:51;;;;;;;20.48;9.45;;;;;;;1.78;94.50;100333.50;20648706;28;20339;-72
2021/11/29 20:53:55;;;;;;;21.65;10.30;;;;;;;1.93;94.54;100332.91;20645812;28;20062;-74
2021/11/29 21:03:58;;;;;;;22.30;10.25;;;;;;;1.83;94.54;100341.34;20638759;28;20054;-75
2021/11/29 21:14:01;;;;;;;23.88;11.05;;;;;;;1.98;94.09;100345.91;20623386;28;20484;-74
2021/11/29 21:24:03;;;;;;;18.13;9.35;;;;;;;1.88;94.68;100333.69;20598105;28;20043;-72
2021/11/29 21:34:06;;;;;;;19.88;9.70;;;;;;;1.92;95.14;100338.06;20576036;28;20958;-72
2021/11/29 21:44:08;;;;;;;20.88;9.45;;;;;;;1.89;95.17;100335.41;20566258;28;20141;-72
2021/11/29 21:54:10;;;;;;;20.95;9.80;;;;;;;1.94;94.87;100338.94;20566573;28;20059;-72
2021/11/29 22:04:11;;;;;;;24.35;11.15;;;;;;;1.98;95.38;100341.63;20644751;28;20118;-72
2021/11/29 22:14:13;;;;;;;25.08;12.10;;;;;;;1.99;95.31;100339.91;20626590;28;20063;-72
2021/11/29 22:24:14;;;;;;;20.25;11.15;;;;;;;2.00;95.44;100355.41;20580962;28;20106;-72
2021/11/29 22:34:16;;;;;;;21.90;10.18;;;;;;;1.99;95.38;100381.22;20577939;28;20594;-72
2021/11/29 22:44:18;;;;;;;18.73;10.40;;;;;;;2.08;94.93;100378.81;20579020;28;20055;-72
2021/11/29 22:54:19;;;;;;;16.58;8.93;;;;;;;2.17;93.88;100389.31;20577309;28;20101;-72
2021/11/29 23:04:22;;;;;;;19.08;9.98;;;;;;;2.29;93.86;100373.13;20598641;28;20607;-71
2021/11/29 23:14:25;;;;;;;18.92;10.20;;;;;;;2.31;93.59;100380.09;20663646;28;20095;-72
2021/11/29 23:24:29;;;;;;;18.88;8.63;;;;;;;2.27;93.88;100390.34;20661274;28;20518;-69
2021/11/29 23:34:30;;;;;;;16.07;8.03;;;;;;;2.40;91.54;100396.59;20660492;28;20466;-69
2021/11/29 23:44:32;;;;;;;16.98;8.10;;;;;;;2.47;90.75;100403.59;20661480;28;20058;-70
2021/11/29 23:54:33;;;;;;;18.15;7.63;;;;;;;2.46;91.28;100419.94;20659362;28;20077;-70
